Time;durP1;ratioP1;P1;durP2;ratioP2;P2;SDS_P1;SDS_P2;PMS_P1;PMS_P2;Temp;Humidity;BMP_temperature;BMP_pressure;BME280_temperature;BME280_humidity;BME280_pressure;Samples;Min_cycle;Max_cycle;Signal;HPM_P1;HPM_P2
2023/05/25 00:01:33;;;;;;;51.00;21.70;;;11.50;99.90;;;;;;4427510;28;660848;-71
2023/05/25 00:04:20;;;;;;;45.43;22.50;;;11.60;99.90;;;;;;4425433;28;660631;-71
2023/05/25 00:07:07;;;;;;;42.63;21.23;;;11.50;99.90;;;;;;4438759;28;661636;-71
2023/05/25 00:09:56;;;;;;;55.30;22.87;;;11.60;99.90;;;;;;4445350;28;661200;-71
2023/05/25 00:12:44;;;;;;;49.37;22.80;;;11.60;99.90;;;;;;4436617;28;661486;-71
2023/05/25 00:15:31;;;;;;;49.13;22.30;;;11.60;99.90;;;;;;4416298;28;661119;-72
2023/05/25 00:18:18;;;;;;;49.30;20.33;;;11.60;99.90;;;;;;4434238;28;661678;-71
2023/05/25 00:21:06;;;;;;;44.57;21.10;;;11.60;99.90;;;;;;4421332;28;661280;-72
2023/05/25 00:23:53;;;;;;;47.47;21.07;;;11.50;99.90;;;;;;4436445;28;661645;-71
2023/05/25 00:26:42;;;;;;;47.60;21.20;;;11.40;99.90;;;;;;4420419;28;660926;-71
2023/05/25 00:29:29;;;;;;;43.67;20.10;;;11.40;99.90;;;;;;4440545;28;661437;-71
2023/05/25 00:32:16;;;;;;;45.77;21.40;;;11.40;99.90;;;;;;4414318;28;661422;-71
2023/05/25 00:35:03;;;;;;;41.53;20.07;;;11.40;99.90;;;;;;4434943;28;661715;-71
2023/05/25 00:37:50;;;;;;;45.50;20.00;;;11.50;99.90;;;;;;4417751;28;661450;-71
2023/05/25 00:40:38;;;;;;;48.37;20.87;;;11.40;99.90;;;;;;4442630;28;662368;-71
2023/05/25 00:43:27;;;;;;;44.93;20.50;;;11.50;99.90;;;;;;4420499;28;661192;-71
2023/05/25 00:46:14;;;;;;;37.80;18.87;;;11.50;99.90;;;;;;4434846;28;661022;-71
2023/05/25 00:49:01;;;;;;;38.07;19.13;;;11.50;99.90;;;;;;4419044;28;660906;-71
2023/05/25 00:51:49;;;;;;;36.87;18.63;;;11.50;99.90;;;;;;4431455;28;661843;-71
2023/05/25 00:54:36;;;;;;;40.13;19.23;;;11.50;99.90;;;;;;4415848;28;660813;-71
2023/05/25 00:57:23;;;;;;;39.63;19.23;;;11.50;99.90;;;;;;4435217;28;661439;-71
2023/05/25 01:00:13;;;;;;;42.90;20.80;;;11.50;99.90;;;;;;4419842;28;660905;-71
2023/05/25 01:03:00;;;;;;;41.87;20.30;;;11.40;99.90;;;;;;4425832;28;660928;-71
2023/05/25 01:05:48;;;;;;;45.83;21.50;;;11.50;99.90;;;;;;4441595;28;661553;-71
2023/05/25 01:08:36;;;;;;;46.90;22.70;;;11.50;99.90;;;;;;4407339;28;663868;-71
2023/05/25 01:11:25;;;;;;;52.57;25.00;;;11.50;99.90;;;;;;4439039;28;661819;-71
2023/05/25 01:14:12;;;;;;;53.60;23.63;;;11.30;99.90;;;;;;4421164;28;662151;-71
2023/05/25 01:17:02;;;;;;;57.40;22.73;;;11.30;99.90;;;;;;4436618;28;661471;-71
2023/05/25 01:19:51;;;;;;;49.97;23.13;;;11.30;99.90;;;;;;4421385;28;660914;-71
2023/05/25 01:22:41;;;;;;;65.00;24.80;;;11.30;99.90;;;;;;4414702;28;662373;-71
2023/05/25 01:25:31;;;;;;;53.10;22.70;;;11.20;99.90;;;;;;4410326;28;661777;-71
2023/05/25 01:28:21;;;;;;;50.47;21.73;;;11.20;99.90;;;;;;4415575;28;661926;-71
2023/05/25 01:31:09;;;;;;;50.50;23.27;;;11.20;99.90;;;;;;4408259;28;661288;-71
2023/05/25 01:33:56;;;;;;;50.33;22.77;;;11.20;99.90;;;;;;4413075;28;660625;-71
2023/05/25 01:36:43;;;;;;;53.90;22.83;;;11.10;99.90;;;;;;4431823;28;660811;-71
2023/05/25 01:39:32;;;;;;;50.83;22.30;;;11.10;99.90;;;;;;4413432;28;660851;-71
2023/05/25 01:42:19;;;;;;;58.70;24.83;;;11.10;99.90;;;;;;4433340;28;661378;-71
2023/05/25 01:45:07;;;;;;;62.43;24.07;;;11.10;99.90;;;;;;4414688;28;661822;-71
2023/05/25 01:47:59;;;;;;;59.13;24.17;;;11.10;99.90;;;;;;4442439;28;661133;-71
2023/05/25 01:50:50;;;;;;;56.70;23.83;;;11.00;99.90;;;;;;4418935;28;660480;-71
2023/05/25 01:53:40;;;;;;;53.67;23.57;;;11.00;99.90;;;;;;4423949;28;660737;-71
2023/05/25 01:56:29;;;;;;;62.23;23.70;;;11.00;99.90;;;;;;4420867;28;661828;-71
2023/05/25 01:59:16;;;;;;;52.50;22.90;;;11.00;99.90;;;;;;4413033;28;661369;-71
2023/05/25 02:02:04;;;;;;;54.53;23.80;;;11.00;99.90;;;;;;4447441;28;661742;-70
2023/05/25 02:04:52;;;;;;;47.37;22.80;;;11.00;99.90;;;;;;4428994;28;661326;-71
2023/05/25 02:07:39;;;;;;;57.70;23.67;;;11.00;99.90;;;;;;4444831;28;660482;-70
2023/05/25 02:10:26;;;;;;;52.22;21.85;;;11.00;99.90;;;;;;4424293;28;661165;-71
2023/05/25 02:13:15;;;;;;;74.17;25.70;;;11.00;99.90;;;;;;4445506;28;662240;-71
2023/05/25 02:16:02;;;;;;;59.40;25.77;;;10.90;99.90;;;;;;4405438;28;661467;-71
2023/05/25 02:18:49;;;;;;;61.13;26.40;;;10.90;99.90;;;;;;4439312;28;661469;-71
2023/05/25 02:21:37;;;;;;;59.87;26.83;;;10.90;99.90;;;;;;4420990;28;661206;-71
2023/05/25 02:24:24;;;;;;;65.17;26.20;;;10.90;99.90;;;;;;4451832;28;661103;-71
2023/05/25 02:27:11;;;;;;;63.90;26.13;;;11.00;99.90;;;;;;4418060;28;660724;-71
2023/05/25 02:30:00;;;;;;;60.70;26.57;;;11.00;99.90;;;;;;4443185;28;662264;-71
2023/05/25 02:32:47;;;;;;;60.25;27.17;;;11.00;99.90;;;;;;4421570;28;660791;-71
2023/05/25 02:35:34;;;;;;;59.00;25.90;;;10.90;99.90;;;;;;4436670;28;661024;-71
2023/05/25 02:38:22;;;;;;;59.87;25.90;;;10.90;99.90;;;;;;4423541;28;660944;-71
2023/05/25 02:41:09;;;;;;;58.63;25.80;;;10.90;99.90;;;;;;4444636;28;661472;-71
2023/05/25 02:43:56;;;;;;;57.43;24.47;;;10.90;99.90;;;;;;4423642;28;661106;-71
2023/05/25 02:46:45;;;;;;;47.67;23.13;;;10.80;99.90;;;;;;4441045;28;661663;-71
2023/05/25 02:49:33;;;;;;;50.67;21.80;;;10.80;99.90;;;;;;4424075;28;660745;-71
2023/05/25 02:52:21;;;;;;;54.53;23.50;;;10.90;99.90;;;;;;4419706;28;660863;-71
2023/05/25 02:55:12;;;;;;;46.40;21.70;;;10.90;99.90;;;;;;4437190;28;661505;-71
2023/05/25 02:57:59;;;;;;;44.13;21.33;;;10.80;99.90;;;;;;4424666;28;660807;-71
2023/05/25 03:00:46;;;;;;;46.47;21.10;;;10.80;99.90;;;;;;4424718;28;660763;-71
2023/05/25 03:03:35;;;;;;;42.83;21.10;;;10.70;99.90;;;;;;4443591;28;661524;-71
2023/05/25 03:06:24;;;;;;;42.13;20.00;;;10.70;99.90;;;;;;4425906;28;661577;-71
2023/05/25 03:09:12;;;;;;;35.80;19.57;;;10.70;99.90;;;;;;4411609;28;660781;-71
2023/05/25 03:11:59;;;;;;;42.67;19.90;;;10.80;99.90;;;;;;4433991;28;660658;-72
2023/05/25 03:14:46;;;;;;;38.30;18.57;;;10.70;99.90;;;;;;4422778;28;660561;-71
2023/05/25 03:17:33;;;;;;;37.67;20.03;;;10.80;99.90;;;;;;4447476;28;661865;-71
2023/05/25 03:20:23;;;;;;;37.73;18.77;;;10.70;99.90;;;;;;4420743;28;661358;-71
2023/05/25 03:23:10;;;;;;;32.50;19.07;;;10.80;99.90;;;;;;4420614;28;661181;-71
2023/05/25 03:25:57;;;;;;;35.90;20.17;;;10.80;99.90;;;;;;4439614;28;661373;-71
2023/05/25 03:28:45;;;;;;;37.77;19.80;;;10.80;99.90;;;;;;4433819;28;660715;-71
2023/05/25 03:31:32;;;;;;;36.17;19.40;;;10.80;99.90;;;;;;4439784;28;661092;-71
2023/05/25 03:34:20;;;;;;;40.27;20.57;;;10.90;99.90;;;;;;4443788;28;660651;-71
2023/05/25 03:37:09;;;;;;;40.20;20.53;;;10.90;99.90;;;;;;4439604;28;660984;-70
2023/05/25 03:39:56;;;;;;;40.33;21.97;;;10.90;99.90;;;;;;4411397;28;660787;-71
2023/05/25 03:42:43;;;;;;;41.93;23.30;;;10.80;99.90;;;;;;4440131;28;661185;-71
2023/05/25 03:45:30;;;;;;;48.55;24.02;;;10.80;99.90;;;;;;4424995;28;660617;-71
2023/05/25 03:48:17;;;;;;;45.00;24.17;;;10.80;99.90;;;;;;4441007;28;661396;-71
2023/05/25 03:51:05;;;;;;;44.33;24.17;;;10.80;99.90;;;;;;4437775;28;660785;-71
2023/05/25 03:53:54;;;;;;;47.00;24.80;;;10.80;99.90;;;;;;4444757;28;660945;-71
2023/05/25 03:56:41;;;;;;;48.03;24.43;;;10.80;99.90;;;;;;4408067;28;660789;-71
2023/05/25 03:59:28;;;;;;;46.27;25.20;;;10.80;99.90;;;;;;4436224;28;661546;-71
2023/05/25 04:02:15;;;;;;;46.43;24.83;;;10.70;99.90;;;;;;4421379;28;660967;-71
2023/05/25 04:05:03;;;;;;;48.30;26.23;;;10.70;99.90;;;;;;4438123;28;662264;-71
2023/05/25 04:07:50;;;;;;;55.97;27.25;;;10.70;99.90;;;;;;4427615;28;661765;-70
2023/05/25 04:10:39;;;;;;;57.40;28.07;;;10.80;99.90;;;;;;4440140;28;660117;-71
2023/05/25 04:13:26;;;;;;;65.27;30.30;;;10.70;99.90;;;;;;4416978;28;660895;-71
2023/05/25 04:16:13;;;;;;;65.93;31.13;;;10.60;99.90;;;;;;4434898;28;661725;-71
2023/05/25 04:19:01;;;;;;;69.30;33.17;;;10.50;99.90;;;;;;4418850;28;661601;-72
2023/05/25 04:21:48;;;;;;;68.10;32.93;;;10.50;99.90;;;;;;4432833;28;662192;-71
2023/05/25 04:24:35;;;;;;;79.97;34.53;;;10.60;99.90;;;;;;4396064;28;661375;-71
2023/05/25 04:27:25;;;;;;;75.57;34.07;;;10.60;99.90;;;;;;4428173;28;660507;-70
2023/05/25 04:30:12;;;;;;;86.93;38.63;;;10.70;99.90;;;;;;4402636;28;661666;-71
2023/05/25 04:33:01;;;;;;;111.13;42.40;;;10.70;99.90;;;;;;4425707;28;660867;-71
2023/05/25 04:35:49;;;;;;;102.40;41.20;;;10.70;99.90;;;;;;4393927;28;662574;-71
2023/05/25 04:38:36;;;;;;;95.03;40.13;;;10.70;99.90;;;;;;4399023;28;661662;-71
2023/05/25 04:41:24;;;;;;;102.07;38.97;;;10.60;99.90;;;;;;4419934;28;660880;-70
2023/05/25 04:44:13;;;;;;;105.30;42.17;;;10.60;99.90;;;;;;4399989;28;661566;-70
2023/05/25 04:47:01;;;;;;;105.60;41.47;;;10.60;99.90;;;;;;4403142;28;661828;-71
2023/05/25 04:49:48;;;;;;;116.93;43.60;;;10.70;99.90;;;;;;4416084;28;662614;-70
2023/05/25 04:52:35;;;;;;;103.90;40.30;;;10.80;99.90;;;;;;4394139;28;661797;-71
2023/05/25 04:55:22;;;;;;;115.50;41.83;;;10.80;99.90;;;;;;4421326;28;662693;-70
2023/05/25 04:58:12;;;;;;;103.20;39.70;;;10.80;99.90;;;;;;4410161;28;661606;-71
2023/05/25 05:01:00;;;;;;;113.70;41.23;;;10.80;99.90;;;;;;4413333;28;662279;-71
2023/05/25 05:03:47;;;;;;;103.70;38.95;;;10.80;99.90;;;;;;4390395;28;662188;-71
2023/05/25 05:06:35;;;;;;;98.33;38.43;;;10.90;99.90;;;;;;4416552;28;661987;-71
2023/05/25 05:09:23;;;;;;;98.23;37.40;;;11.00;99.90;;;;;;4424745;28;661944;-71
2023/05/25 05:12:10;;;;;;;89.97;36.07;;;11.00;99.90;;;;;;4408545;28;660772;-70
2023/05/25 05:14:57;;;;;;;92.97;36.53;;;11.00;99.90;;;;;;4429520;28;661222;-71
2023/05/25 05:17:47;;;;;;;90.57;37.77;;;10.90;99.90;;;;;;4417607;28;660387;-71
2023/05/25 05:20:34;;;;;;;97.33;36.67;;;11.00;99.90;;;;;;4419114;28;661389;-70
2023/05/25 05:23:21;;;;;;;89.83;36.47;;;11.00;99.90;;;;;;4401366;28;660903;-71
2023/05/25 05:26:10;;;;;;;95.80;37.67;;;11.10;99.90;;;;;;4415804;28;661621;-70
2023/05/25 05:28:57;;;;;;;93.20;35.03;;;11.10;99.90;;;;;;4394348;28;662216;-71
2023/05/25 05:31:44;;;;;;;91.53;36.40;;;11.20;99.90;;;;;;4416801;28;661448;-71
2023/05/25 05:34:33;;;;;;;96.33;36.33;;;11.20;99.90;;;;;;4398310;28;661318;-71
2023/05/25 05:37:20;;;;;;;103.33;37.30;;;11.30;99.90;;;;;;4406364;28;661055;-72
2023/05/25 05:40:09;;;;;;;105.00;37.97;;;11.30;99.90;;;;;;4420647;28;662306;-72
2023/05/25 05:42:56;;;;;;;90.47;35.50;;;11.40;99.90;;;;;;4544157;28;661967;-72
2023/05/25 09:26:25;;;;;;;33.63;18.87;;;12.50;99.90;;;;;;5062988;27;20793;-74
2023/05/25 09:29:13;;;;;;;31.80;19.17;;;12.70;99.90;;;;;;5055159;28;20203;-72
2023/05/25 09:32:01;;;;;;;34.00;20.03;;;12.60;99.90;;;;;;5065271;27;20206;-73
2023/05/25 09:34:48;;;;;;;32.47;19.07;;;12.80;99.90;;;;;;5059515;27;20266;-73
2023/05/25 09:37:35;;;;;;;37.83;20.50;;;13.00;99.90;;;;;;5059671;27;20204;-74
2023/05/25 09:40:22;;;;;;;32.80;20.60;;;12.70;99.90;;;;;;5060479;27;20205;-73
2023/05/25 09:43:11;;;;;;;37.00;19.70;;;12.90;99.90;;;;;;5060047;27;20201;-73
2023/05/25 09:45:58;;;;;;;33.83;20.80;;;13.20;99.90;;;;;;5065208;27;20231;-74
2023/05/25 09:48:47;;;;;;;38.23;22.43;;;13.30;99.90;;;;;;5075956;27;20603;-74
2023/05/25 09:51:35;;;;;;;39.17;22.07;;;13.40;99.90;;;;;;5076524;27;20200;-73
2023/05/25 09:54:22;;;;;;;41.60;24.80;;;13.50;99.90;;;;;;5078368;28;20198;-73
2023/05/25 09:57:09;;;;;;;41.67;24.10;;;13.40;99.90;;;;;;5077796;27;20672;-74
2023/05/25 09:59:58;;;;;;;40.73;25.00;;;13.20;99.90;;;;;;5078153;27;20203;-74
2023/05/25 10:02:45;;;;;;;41.63;24.57;;;13.30;99.90;;;;;;5072804;28;20251;-73
2023/05/25 10:05:32;;;;;;;47.87;27.70;;;13.40;99.90;;;;;;5079220;27;20634;-73
2023/05/25 10:08:22;;;;;;;48.67;27.40;;;13.00;99.90;;;;;;5069942;27;20212;-74
2023/05/25 10:11:09;;;;;;;48.13;28.13;;;12.80;99.90;;;;;;5075060;27;20197;-73
2023/05/25 10:13:57;;;;;;;51.50;26.23;;;12.90;99.90;;;;;;5076353;27;20606;-73
2023/05/25 10:16:48;;;;;;;48.67;26.97;;;13.10;99.90;;;;;;5092184;27;20301;-73
2023/05/25 10:19:40;;;;;;;42.90;25.57;;;13.30;99.90;;;;;;5086783;27;20250;-73
2023/05/25 10:22:31;;;;;;;51.33;26.57;;;13.40;99.90;;;;;;5067163;28;20228;-73
2023/05/25 10:25:23;;;;;;;46.60;26.50;;;13.40;99.90;;;;;;5070227;27;20266;-73
2023/05/25 10:28:13;;;;;;;55.07;28.67;;;13.30;99.90;;;;;;5048791;27;20238;-73
2023/05/25 10:31:00;;;;;;;46.50;25.97;;;13.10;99.90;;;;;;5052989;27;20208;-74
2023/05/25 10:33:49;;;;;;;53.00;28.40;;;13.20;99.90;;;;;;5052536;28;20308;-74
2023/05/25 10:36:36;;;;;;;47.53;26.43;;;12.90;99.90;;;;;;5056254;27;20644;-73
2023/05/25 10:39:24;;;;;;;46.70;26.80;;;13.10;99.90;;;;;;5058815;27;20202;-73
2023/05/25 10:42:12;;;;;;;48.37;27.17;;;13.30;99.90;;;;;;5050704;28;20690;-73
2023/05/25 10:44:59;;;;;;;45.43;26.43;;;13.20;99.90;;;;;;5051602;27;20292;-74
2023/05/25 10:47:46;;;;;;;48.37;27.77;;;13.20;99.90;;;;;;5058099;28;20210;-74
2023/05/25 10:50:36;;;;;;;51.07;28.77;;;13.30;99.90;;;;;;5063433;28;20265;-74
2023/05/25 10:53:23;;;;;;;49.43;26.37;;;13.30;99.90;;;;;;5063581;27;20214;-73
2023/05/25 10:56:12;;;;;;;48.03;28.13;;;13.30;99.90;;;;;;5057488;27;20199;-73
2023/05/25 10:58:59;;;;;;;48.77;28.67;;;13.30;99.90;;;;;;5053150;27;20202;-73
2023/05/25 11:01:52;;;;;;;55.57;30.70;;;13.30;99.90;;;;;;5055758;28;20210;-74
2023/05/25 11:04:40;;;;;;;54.53;30.57;;;13.00;99.90;;;;;;5054008;27;20843;-74
2023/05/25 11:07:28;;;;;;;51.53;29.87;;;13.30;99.90;;;;;;5051439;27;20206;-73
2023/05/25 11:10:15;;;;;;;49.23;28.60;;;13.60;99.90;;;;;;5047810;27;20644;-73
2023/05/25 11:13:21;;;;;;;46.87;27.40;;;13.90;99.90;;;;;;5057731;28;20207;-74
2023/05/25 11:16:23;;;;;;;50.70;29.60;;;13.70;99.90;;;;;;5063475;27;20281;-73
2023/05/25 11:19:14;;;;;;;49.03;28.77;;;13.70;99.90;;;;;;5052360;28;20201;-74
2023/05/25 11:22:07;;;;;;;53.13;28.43;;;13.60;99.90;;;;;;5066141;27;20684;-72
2023/05/25 11:24:58;;;;;;;52.47;29.17;;;13.70;99.90;;;;;;5052777;27;20230;-73
2023/05/25 11:27:46;;;;;;;47.60;26.70;;;14.00;99.90;;;;;;5058995;27;20579;-75
2023/05/25 11:30:33;;;;;;;51.13;29.17;;;14.00;99.90;;;;;;5058399;27;20207;-74
2023/05/25 11:33:22;;;;;;;47.33;29.23;;;13.90;99.90;;;;;;5049854;28;20398;-73
2023/05/25 11:36:10;;;;;;;53.93;27.70;;;13.90;99.90;;;;;;5046843;27;20207;-74
2023/05/25 11:39:00;;;;;;;44.47;28.77;;;13.80;99.90;;;;;;5066113;27;20261;-73
2023/05/25 11:41:48;;;;;;;55.10;30.00;;;13.90;99.90;;;;;;5059944;27;20625;-74
2023/05/25 11:44:36;;;;;;;42.77;25.27;;;13.50;99.90;;;;;;5054687;27;20249;-73
2023/05/25 11:47:24;;;;;;;51.70;29.40;;;13.60;99.90;;;;;;5063262;27;20193;-73
2023/05/25 11:50:15;;;;;;;43.60;28.03;;;13.90;99.90;;;;;;5046558;28;20206;-73
2023/05/25 11:53:05;;;;;;;46.20;28.23;;;13.90;99.90;;;;;;5050799;27;20348;-73
2023/05/25 11:55:53;;;;;;;42.87;26.43;;;14.20;99.90;;;;;;5049937;28;20205;-72
2023/05/25 11:58:43;;;;;;;41.23;25.33;;;14.30;99.90;;;;;;5050312;27;20250;-73
2023/05/25 12:01:31;;;;;;;45.27;28.37;;;14.30;99.90;;;;;;5050951;27;20217;-73
2023/05/25 12:04:18;;;;;;;36.80;25.03;;;13.90;99.90;;;;;;5064115;27;20265;-73
2023/05/25 12:07:06;;;;;;;42.50;25.57;;;14.10;99.90;;;;;;5061016;27;20290;-73
2023/05/25 12:09:59;;;;;;;36.60;24.30;;;14.10;99.90;;;;;;5082681;27;20211;-74
2023/05/25 12:12:47;;;;;;;39.53;26.97;;;14.40;99.90;;;;;;5080904;27;20195;-72
2023/05/25 12:15:35;;;;;;;40.63;25.70;;;14.40;99.90;;;;;;5093338;27;20197;-73
2023/05/25 12:18:22;;;;;;;38.63;24.97;;;14.50;99.90;;;;;;5066609;27;20224;-72
2023/05/25 12:21:10;;;;;;;40.13;24.80;;;14.70;99.90;;;;;;5070439;27;21115;-74
2023/05/25 12:23:57;;;;;;;39.33;24.67;;;14.70;99.90;;;;;;5070149;27;20207;-73
2023/05/25 12:26:47;;;;;;;42.03;25.40;;;14.60;99.90;;;;;;5064790;27;20224;-73
2023/05/25 12:29:35;;;;;;;38.27;25.17;;;14.70;99.90;;;;;;5078073;27;20291;-74
2023/05/25 12:32:23;;;;;;;37.03;24.03;;;14.90;99.90;;;;;;5066534;27;20201;-75
2023/05/25 12:35:10;;;;;;;50.27;26.50;;;14.90;99.90;;;;;;5057948;27;20265;-74
2023/05/25 12:38:10;;;;;;;39.97;25.13;;;14.90;99.90;;;;;;5062698;27;20219;-75
2023/05/25 12:41:07;;;;;;;37.60;24.17;;;15.00;99.90;;;;;;5075246;27;20692;-74
2023/05/25 12:43:54;;;;;;;47.27;26.67;;;14.50;99.90;;;;;;5059750;27;20211;-74
2023/05/25 12:46:41;;;;;;;43.57;26.87;;;14.40;99.90;;;;;;5060959;27;20211;-74
2023/05/25 12:49:33;;;;;;;45.93;26.53;;;14.70;99.90;;;;;;5054763;27;20202;-74
2023/05/25 12:52:33;;;;;;;43.10;27.80;;;15.10;99.90;;;;;;5061652;27;20203;-74
2023/05/25 12:55:25;;;;;;;45.23;28.03;;;15.40;99.90;;;;;;5054615;27;20211;-74
2023/05/25 12:58:26;;;;;;;46.50;28.57;;;15.80;99.90;;;;;;5053985;27;20721;-74
2023/05/25 13:01:14;;;;;;;43.37;26.63;;;16.00;99.90;;;;;;5050552;27;20201;-75
2023/05/25 13:04:01;;;;;;;52.27;29.47;;;15.80;99.90;;;;;;5050559;27;20568;-74
2023/05/25 13:06:49;;;;;;;50.27;29.30;;;15.70;99.90;;;;;;5051278;27;20212;-74
2023/05/25 13:09:37;;;;;;;45.97;27.57;;;15.70;99.90;;;;;;5054319;27;20568;-74
2023/05/25 13:12:24;;;;;;;43.53;26.77;;;16.00;99.90;;;;;;5056045;28;20196;-74
2023/05/25 13:15:11;;;;;;;42.40;26.73;;;16.10;99.90;;;;;;5059659;27;20225;-73
2023/05/25 13:17:59;;;;;;;42.50;27.20;;;16.20;99.90;;;;;;5052577;28;20358;-74
2023/05/25 13:20:46;;;;;;;41.50;24.70;;;16.30;99.90;;;;;;5054536;28;20201;-74
2023/05/25 13:23:35;;;;;;;45.10;27.20;;;16.20;99.90;;;;;;5060474;28;20573;-72
2023/05/25 13:26:23;;;;;;;43.00;27.33;;;15.90;99.90;;;;;;5045526;28;20225;-73
2023/05/25 13:29:10;;;;;;;45.37;26.70;;;15.90;99.90;;;;;;5050915;27;20217;-73
2023/05/25 13:31:58;;;;;;;40.17;27.73;;;15.60;99.90;;;;;;5079262;27;20208;-73
2023/05/25 13:34:45;;;;;;;45.23;28.00;;;15.70;99.90;;;;;;5055038;28;20575;-74
2023/05/25 13:37:32;;;;;;;45.17;27.73;;;15.30;99.90;;;;;;5055464;28;20192;-73
2023/05/25 13:40:21;;;;;;;41.53;26.07;;;15.60;99.90;;;;;;5055881;27;20204;-73
2023/05/25 13:43:08;;;;;;;41.07;26.17;;;15.80;99.90;;;;;;5055481;27;20204;-75
2023/05/25 13:45:57;;;;;;;43.37;26.43;;;15.80;99.90;;;;;;5046378;27;20234;-75
2023/05/25 13:48:46;;;;;;;37.70;26.00;;;15.60;99.90;;;;;;5045726;27;20667;-74
2023/05/25 13:51:34;;;;;;;39.50;27.47;;;15.30;99.90;;;;;;5045433;27;20208;-74
2023/05/25 13:54:22;;;;;;;42.20;26.10;;;15.30;99.90;;;;;;5047668;28;20209;-74
2023/05/25 13:57:11;;;;;;;40.53;26.07;;;15.10;99.90;;;;;;5045032;28;20579;-74
2023/05/25 13:59:58;;;;;;;41.43;25.80;;;15.20;99.90;;;;;;5045040;28;20205;-74
2023/05/25 14:02:45;;;;;;;43.90;25.67;;;15.50;99.90;;;;;;5050191;28;20199;-74
2023/05/25 14:05:32;;;;;;;35.70;24.07;;;15.50;99.90;;;;;;5048770;28;20336;-74
2023/05/25 14:08:19;;;;;;;35.03;23.90;;;15.50;99.90;;;;;;5056424;28;20774;-74
2023/05/25 14:11:06;;;;;;;33.07;23.03;;;15.60;99.90;;;;;;5056445;27;20658;-74
2023/05/25 14:13:55;;;;;;;38.30;22.73;;;15.60;99.90;;;;;;5054925;28;20205;-74
2023/05/25 14:16:42;;;;;;;34.03;22.90;;;15.60;99.90;;;;;;5062647;27;20225;-74
2023/05/25 14:19:29;;;;;;;38.33;21.93;;;15.60;99.90;;;;;;5052059;27;20206;-74
2023/05/25 14:22:17;;;;;;;29.73;22.17;;;15.70;99.90;;;;;;5047456;28;20647;-74
2023/05/25 14:25:04;;;;;;;26.40;20.03;;;15.60;99.90;;;;;;5063427;28;20248;-74
2023/05/25 14:27:52;;;;;;;26.73;18.07;;;15.60;99.90;;;;;;5053430;27;20205;-74
2023/05/25 14:30:40;;;;;;;27.77;17.60;;;15.30;99.90;;;;;;5048428;28;20205;-74
2023/05/25 14:33:27;;;;;;;26.37;18.03;;;15.40;99.90;;;;;;5048774;28;20281;-74
2023/05/25 14:36:15;;;;;;;27.27;18.67;;;15.40;99.90;;;;;;5058878;28;20196;-73
2023/05/25 14:39:02;;;;;;;25.33;16.83;;;15.30;99.90;;;;;;5054543;28;20243;-73
2023/05/25 14:41:49;;;;;;;24.03;16.53;;;15.50;99.90;;;;;;5048336;28;20205;-74
2023/05/25 14:44:36;;;;;;;21.57;15.70;;;15.30;99.90;;;;;;5056823;28;20229;-74
2023/05/25 14:47:25;;;;;;;25.13;16.87;;;15.40;99.90;;;;;;5054468;27;20747;-74
2023/05/25 14:50:12;;;;;;;21.10;15.30;;;15.40;99.90;;;;;;5048539;28;20208;-74
2023/05/25 14:52:59;;;;;;;26.57;16.13;;;15.40;99.90;;;;;;5048064;28;20880;-74
2023/05/25 14:55:47;;;;;;;23.37;16.10;;;15.30;99.90;;;;;;5050797;28;20205;-74
2023/05/25 14:58:34;;;;;;;27.77;17.43;;;15.00;99.90;;;;;;5049776;27;20201;-74
2023/05/25 15:01:21;;;;;;;23.57;15.77;;;15.10;99.90;;;;;;5056015;28;20200;-75
2023/05/25 15:04:10;;;;;;;23.90;16.37;;;15.10;99.90;;;;;;5059060;27;20231;-74
2023/05/25 15:06:57;;;;;;;21.13;15.17;;;15.20;99.90;;;;;;5053640;27;20217;-74
2023/05/25 15:09:45;;;;;;;19.87;13.83;;;15.30;99.90;;;;;;5061580;28;20239;-74
2023/05/25 15:12:32;;;;;;;22.33;14.07;;;15.30;99.90;;;;;;5051701;27;20205;-74
2023/05/25 15:15:19;;;;;;;19.10;13.40;;;15.20;99.90;;;;;;5048254;28;20211;-75
2023/05/25 15:18:06;;;;;;;25.40;14.63;;;15.20;99.90;;;;;;5053324;27;20225;-74
2023/05/25 15:20:56;;;;;;;20.43;13.87;;;15.10;99.90;;;;;;5056269;28;20250;-74
2023/05/25 15:23:44;;;;;;;22.83;15.33;;;15.10;99.90;;;;;;5048147;27;20206;-74
2023/05/25 15:26:31;;;;;;;23.43;15.83;;;15.10;99.90;;;;;;5053889;28;20266;-74
2023/05/25 15:29:18;;;;;;;25.80;16.33;;;14.80;99.90;;;;;;5070861;27;20686;-74
2023/05/25 15:32:06;;;;;;;22.67;15.73;;;14.90;99.90;;;;;;5049874;28;20291;-74
2023/05/25 15:34:53;;;;;;;22.90;15.33;;;14.60;99.90;;;;;;5047643;28;20327;-74
2023/05/25 15:37:42;;;;;;;21.80;15.63;;;14.60;99.90;;;;;;5051664;28;20276;-74
2023/05/25 15:40:30;;;;;;;22.07;15.10;;;14.60;99.90;;;;;;5055752;27;20212;-74
2023/05/25 15:43:17;;;;;;;22.47;15.60;;;14.70;99.90;;;;;;5050889;27;20210;-74
2023/05/25 15:46:04;;;;;;;24.90;16.47;;;14.70;99.90;;;;;;5052449;28;20354;-74
2023/05/25 15:48:51;;;;;;;29.20;16.57;;;14.70;99.90;;;;;;5052966;27;20264;-74
2023/05/25 15:51:40;;;;;;;27.13;15.97;;;14.60;99.90;;;;;;5055758;27;20810;-74
2023/05/25 15:54:28;;;;;;;25.60;16.27;;;14.70;99.90;;;;;;5054529;28;20239;-74
2023/05/25 15:57:17;;;;;;;24.50;16.80;;;14.70;99.90;;;;;;5049980;28;20201;-74
2023/05/25 16:00:06;;;;;;;27.97;17.97;;;14.60;99.90;;;;;;5060502;28;20554;-74
2023/05/25 16:02:53;;;;;;;24.60;16.90;;;14.70;99.90;;;;;;5047803;27;20212;-73
2023/05/25 16:05:40;;;;;;;24.37;16.47;;;14.70;99.90;;;;;;5051648;27;20297;-74
2023/05/25 16:08:27;;;;;;;25.87;17.07;;;14.40;99.90;;;;;;5047250;28;20252;-74
2023/05/25 16:11:16;;;;;;;25.20;16.40;;;14.50;99.90;;;;;;5059517;27;20236;-73
2023/05/25 16:14:03;;;;;;;23.70;15.57;;;14.50;99.90;;;;;;5046696;28;20241;-74
2023/05/25 16:16:50;;;;;;;25.47;16.17;;;14.40;99.90;;;;;;5053551;28;20227;-74
2023/05/25 16:19:37;;;;;;;24.70;15.57;;;14.40;99.90;;;;;;5063101;27;20245;-74
2023/05/25 16:22:25;;;;;;;26.67;15.57;;;14.50;99.90;;;;;;5057015;28;20212;-74
2023/05/25 16:25:12;;;;;;;24.63;15.63;;;14.50;99.90;;;;;;5048922;27;20233;-74
2023/05/25 16:28:00;;;;;;;25.17;16.00;;;14.50;99.90;;;;;;5046121;28;20295;-74
2023/05/25 16:30:48;;;;;;;26.87;16.43;;;14.50;99.90;;;;;;5059429;27;20690;-74
2023/05/25 16:33:35;;;;;;;23.57;16.13;;;14.40;99.90;;;;;;5059173;27;20200;-74
2023/05/25 16:36:22;;;;;;;25.47;16.73;;;14.40;99.90;;;;;;5050137;27;20204;-74
2023/05/25 16:39:10;;;;;;;23.90;16.30;;;14.40;99.90;;;;;;5062790;28;20237;-74
2023/05/25 16:41:57;;;;;;;28.67;16.40;;;14.50;99.90;;;;;;5050094;27;20209;-74
2023/05/25 16:44:46;;;;;;;27.83;17.23;;;14.50;99.90;;;;;;5045812;28;20280;-74
2023/05/25 16:47:33;;;;;;;25.93;17.33;;;14.40;99.90;;;;;;5049226;27;20255;-73
2023/05/25 16:50:20;;;;;;;38.07;18.33;;;14.40;99.90;;;;;;5046132;28;20347;-73
2023/05/25 16:53:07;;;;;;;29.10;17.80;;;14.40;99.90;;;;;;5046220;28;20270;-73
2023/05/25 16:55:55;;;;;;;33.03;18.03;;;14.50;99.90;;;;;;5046770;28;20264;-74
2023/05/25 16:58:42;;;;;;;29.13;17.83;;;14.20;99.90;;;;;;5063440;27;20205;-73
2023/05/25 17:01:30;;;;;;;29.67;18.70;;;14.30;99.90;;;;;;5045223;28;20261;-73
2023/05/25 17:04:17;;;;;;;34.20;19.60;;;14.40;99.90;;;;;;5048664;28;20209;-74
2023/05/25 17:07:05;;;;;;;33.07;19.60;;;14.30;99.90;;;;;;5044938;28;20261;-74
2023/05/25 17:09:52;;;;;;;28.67;19.43;;;14.40;99.90;;;;;;5048577;28;20981;-73
2023/05/25 17:12:39;;;;;;;33.97;21.13;;;14.40;99.90;;;;;;5053558;27;20220;-74
2023/05/25 17:15:26;;;;;;;31.83;20.33;;;14.50;99.90;;;;;;5057922;28;20200;-74
2023/05/25 17:18:15;;;;;;;32.63;19.83;;;15.60;99.90;;;;;;5053491;28;20237;-73
2023/05/25 17:21:02;;;;;;;29.27;19.03;;;15.80;99.90;;;;;;5068627;28;20224;-74
2023/05/25 17:23:49;;;;;;;29.03;20.70;;;15.70;99.90;;;;;;5046586;27;20216;-74
2023/05/25 17:26:36;;;;;;;30.83;21.77;;;15.50;99.90;;;;;;5048849;27;20232;-74
2023/05/25 17:29:24;;;;;;;33.13;22.03;;;15.00;99.90;;;;;;5049250;28;20204;-74
2023/05/25 17:32:11;;;;;;;32.77;20.67;;;14.70;99.90;;;;;;5057541;28;20237;-74
2023/05/25 17:35:00;;;;;;;28.17;20.07;;;14.60;99.90;;;;;;5049302;28;20578;-74
2023/05/25 17:37:47;;;;;;;34.97;19.33;;;14.50;99.90;;;;;;5063166;27;20261;-74
2023/05/25 17:40:34;;;;;;;31.90;19.03;;;14.50;99.90;;;;;;5053146;27;20682;-74
2023/05/25 17:43:22;;;;;;;31.83;19.63;;;14.50;99.90;;;;;;5061088;28;20212;-74
2023/05/25 17:46:09;;;;;;;30.20;18.47;;;14.40;99.90;;;;;;5049803;28;20616;-74
2023/05/25 17:48:56;;;;;;;30.50;18.77;;;14.40;99.90;;;;;;5052295;27;20205;-74